Time;durP1;ratioP1;P1;durP2;ratioP2;P2;SDS_P1;SDS_P2;PMS_P1;PMS_P2;Temp;Humidity;BMP_temperature;BMP_pressure;BME280_temperature;BME280_humidity;BME280_pressure;Samples;Min_cycle;Max_cycle;Signal;HPM_P1;HPM_P2
2021/11/29 00:01:29;;;;;;;3.58;1.88;;;;;;;-149.78;100.00;50604.44;5032187;28;20068;-65
2021/11/29 00:03:55;;;;;;;3.42;1.58;;;;;;;-149.78;100.00;50602.47;5033488;28;20524;-65
2021/11/29 00:06:21;;;;;;;3.85;1.58;;;;;;;-149.78;100.00;50575.09;5033602;28;20072;-64
2021/11/29 00:08:49;;;;;;;4.78;1.63;;;;;;;-149.78;100.00;50604.44;5013464;28;20033;-65
2021/11/29 00:11:14;;;;;;;4.32;1.70;;;;;;;-149.78;100.00;50577.06;5029441;28;20029;-65
2021/11/29 00:13:41;;;;;;;8.75;2.30;;;;;;;-149.78;100.00;50604.44;5042536;28;20033;-65
2021/11/29 00:16:07;;;;;;;6.22;2.15;;;;;;;-149.78;100.00;50549.69;5037833;28;20102;-65
2021/11/29 00:18:33;;;;;;;4.85;2.03;;;;;;;-149.78;100.00;50580.97;5028720;28;20034;-65
2021/11/29 00:20:59;;;;;;;5.35;2.63;;;;;;;-149.78;100.00;50596.63;5022204;28;20035;-65
2021/11/29 00:23:25;;;;;;;5.85;2.03;;;;;;;-149.78;100.00;50573.16;5034651;28;20377;-65
2021/11/29 00:25:51;;;;;;;4.05;2.00;;;;;;;-149.78;100.00;50584.88;5032572;28;20033;-65
2021/11/29 00:28:17;;;;;;;6.00;2.08;;;;;;;-149.78;100.00;50588.78;5016203;28;20057;-65
2021/11/29 00:30:43;;;;;;;12.00;2.45;;;;;;;-149.78;100.00;50624.00;5023644;28;20123;-65
2021/11/29 00:33:09;;;;;;;5.05;1.85;;;;;;;-149.78;100.00;50584.88;5016731;28;20073;-65
2021/11/29 00:35:35;;;;;;;4.40;1.88;;;;;;;-149.78;100.00;50612.25;5025339;28;20408;-65
2021/11/29 00:38:01;;;;;;;5.60;1.75;;;;;;;-149.78;100.00;50573.16;5037913;28;20091;-65
2021/11/29 00:40:27;;;;;;;6.50;1.90;;;;;;;-149.78;100.00;50606.41;5038439;28;20384;-65
2021/11/29 00:42:53;;;;;;;4.85;1.90;;;;;;;-149.78;100.00;50559.47;5024407;28;20037;-65
2021/11/29 00:45:19;;;;;;;5.05;1.90;;;;;;;-149.78;100.00;50577.06;5022251;28;20036;-65
2021/11/29 00:47:45;;;;;;;6.45;2.20;;;;;;;-149.78;100.00;50600.53;5031622;28;20067;-65
2021/11/29 00:50:11;;;;;;;3.20;1.65;;;;;;;-149.78;100.00;50608.34;5036280;28;20033;-65
2021/11/29 00:52:38;;;;;;;6.22;2.13;;;;;;;-149.78;100.00;50592.72;5030112;28;20124;-65
2021/11/29 00:55:04;;;;;;;4.68;1.50;;;;;;;-149.78;100.00;50588.78;5022959;28;20038;-65
2021/11/29 00:57:30;;;;;;;2.83;1.40;;;;;;;-149.78;100.00;50588.78;5028767;28;20420;-65
2021/11/29 00:59:56;;;;;;;7.72;2.13;;;;;;;-149.78;100.00;50608.34;5031457;28;20113;-65
2021/11/29 01:02:22;;;;;;;4.82;1.58;;;;;;;-149.78;100.00;50588.78;5032416;28;20038;-65
2021/11/29 01:04:48;;;;;;;6.32;1.70;;;;;;;-149.78;100.00;50563.38;5021105;28;20030;-65
2021/11/29 01:07:15;;;;;;;5.40;1.73;;;;;;;-149.78;100.00;50588.78;5028082;28;20033;-65
2021/11/29 01:09:40;;;;;;;6.55;2.13;;;;;;;-149.78;100.00;50553.59;5032909;28;20128;-65
2021/11/29 01:12:06;;;;;;;5.57;2.00;;;;;;;-149.78;100.00;50573.16;5029698;28;20114;-65
2021/11/29 01:14:34;;;;;;;6.35;2.03;;;;;;;-149.78;100.00;50579.00;5030140;28;20029;-65
2021/11/29 01:17:00;;;;;;;5.50;1.75;;;;;;;-149.78;100.00;50600.53;5030490;28;20037;-65
2021/11/29 01:19:26;;;;;;;8.80;2.08;;;;;;;-149.78;100.00;50612.25;5030153;28;20030;-65
2021/11/29 01:21:52;;;;;;;4.25;1.80;;;;;;;-149.78;100.00;50610.31;5033119;28;20037;-65
2021/11/29 01:24:18;;;;;;;6.47;1.92;;;;;;;-149.78;100.00;50616.19;5029184;28;20396;-65
2021/11/29 01:26:44;;;;;;;3.80;1.55;;;;;;;-149.78;100.00;50573.16;5032419;28;20037;-65
2021/11/29 01:29:09;;;;;;;7.07;1.55;;;;;;;-149.78;100.00;50569.22;5035356;28;20045;-65
2021/11/29 01:31:35;;;;;;;4.05;1.63;;;;;;;-149.78;100.00;50596.63;5031923;28;20060;-65
2021/11/29 01:34:00;;;;;;;5.13;1.65;;;;;;;-149.78;100.00;50565.31;5034530;28;20057;-65
2021/11/29 01:36:27;;;;;;;4.57;1.58;;;;;;;-149.78;100.00;50608.34;5036569;28;20049;-65
2021/11/29 01:38:53;;;;;;;6.82;1.75;;;;;;;-149.78;100.00;50573.16;5031328;28;20030;-65
2021/11/29 01:41:19;;;;;;;6.43;1.60;;;;;;;-149.78;100.00;50594.66;5034081;28;20365;-65
2021/11/29 01:43:45;;;;;;;4.40;1.55;;;;;;;-149.78;100.00;50577.06;5034863;28;20033;-65
2021/11/29 01:46:12;;;;;;;4.97;1.70;;;;;;;-149.78;100.00;50596.63;5033135;28;20033;-65
2021/11/29 01:48:38;;;;;;;5.90;1.60;;;;;;;-149.78;100.00;50582.94;5032860;28;20029;-65
2021/11/29 01:51:04;;;;;;;5.85;1.48;;;;;;;-149.78;100.00;50577.06;5039117;28;20403;-65
2021/11/29 01:53:32;;;;;;;8.68;1.45;;;;;;;-149.78;100.00;50588.78;5035609;28;20037;-65
2021/11/29 01:55:59;;;;;;;2.45;1.30;;;;;;;-149.78;100.00;50579.00;5035362;28;20029;-65
2021/11/29 01:58:32;;;;;;;3.60;1.67;;;;;;;-149.78;100.00;50573.16;5032379;28;20038;-65
2021/11/29 02:01:01;;;;;;;3.33;1.40;;;;;;;-149.78;100.00;50565.31;5033418;28;20091;-65
2021/11/29 02:03:30;;;;;;;6.53;1.60;;;;;;;-149.78;100.00;50598.56;5035317;28;20064;-65
2021/11/29 02:05:56;;;;;;;3.13;1.10;;;;;;;-149.78;100.00;50577.06;5035027;28;20469;-65
2021/11/29 02:08:23;;;;;;;4.10;1.65;;;;;;;-149.78;100.00;50584.88;5035966;28;20045;-65
2021/11/29 02:10:49;;;;;;;3.38;1.55;;;;;;;-149.78;100.00;50573.16;5033694;28;20056;-65
2021/11/29 02:13:18;;;;;;;3.05;1.27;;;;;;;-149.78;100.00;50604.44;5034560;28;20048;-65
2021/11/29 02:15:50;;;;;;;5.05;1.90;;;;;;;-149.78;100.00;50592.72;5034328;28;20025;-65
2021/11/29 02:18:27;;;;;;;5.07;1.75;;;;;;;-149.78;100.00;50622.03;5031180;28;20137;-65
2021/11/29 02:21:14;;;;;;;5.70;1.95;;;;;;;-149.78;100.00;50598.56;5032486;28;20033;-65
2021/11/29 02:23:50;;;;;;;6.35;1.83;;;;;;;-149.78;100.00;50596.63;5033351;28;20354;-65
2021/11/29 02:26:18;;;;;;;4.43;1.45;;;;;;;-149.78;100.00;50612.25;5032729;28;20029;-65
2021/11/29 02:28:45;;;;;;;5.38;1.83;;;;;;;-149.78;100.00;50600.53;5033068;28;20099;-65
2021/11/29 02:31:15;;;;;;;3.88;1.50;;;;;;;-149.78;100.00;50600.53;5035317;28;20095;-65
2021/11/29 02:33:41;;;;;;;3.85;1.20;;;;;;;-149.78;100.00;50584.88;5036656;28;20041;-65
2021/11/29 02:36:07;;;;;;;3.83;1.63;;;;;;;-149.78;100.00;50616.19;5034608;28;20034;-65
2021/11/29 02:38:33;;;;;;;7.47;1.95;;;;;;;-149.78;100.00;50631.81;5033065;28;20057;-65
2021/11/29 02:40:58;;;;;;;4.63;1.40;;;;;;;-149.78;100.00;50545.75;5023171;28;20041;-65
2021/11/29 02:43:24;;;;;;;3.83;1.45;;;;;;;-149.78;100.00;50586.84;5029803;28;20484;-65
2021/11/29 02:45:51;;;;;;;3.42;1.70;;;;;;;-149.78;100.00;50580.97;5024612;28;20034;-65
2021/11/29 02:48:16;;;;;;;3.35;1.48;;;;;;;-149.78;100.00;50604.44;5030326;28;20037;-65
2021/11/29 02:50:42;;;;;;;2.40;1.20;;;;;;;-149.78;100.00;50588.78;5032218;28;20476;-65
2021/11/29 02:53:12;;;;;;;7.53;1.98;;;;;;;-149.78;100.00;50598.56;5034134;28;20064;-65
2021/11/29 02:55:38;;;;;;;4.90;1.80;;;;;;;-149.78;100.00;50602.47;5031164;28;20038;-65
2021/11/29 02:58:07;;;;;;;2.92;1.25;;;;;;;-149.78;100.00;50635.72;5027035;28;20469;-65
2021/11/29 03:00:34;;;;;;;3.20;1.70;;;;;;;-149.78;100.00;50596.63;5029612;28;20029;-65
2021/11/29 03:03:10;;;;;;;3.90;1.30;;;;;;;-149.78;100.00;50608.34;5036076;28;20033;-65
2021/11/29 03:05:36;;;;;;;7.47;1.40;;;;;;;-149.78;100.00;50602.47;5032773;28;20029;-65
2021/11/29 03:08:03;;;;;;;4.30;1.40;;;;;;;-149.78;100.00;50571.19;5031905;28;20029;-65
2021/11/29 03:10:30;;;;;;;8.55;1.40;;;;;;;-149.78;100.00;50616.19;5033297;28;20113;-65
2021/11/29 03:12:56;;;;;;;2.55;1.40;;;;;;;-149.78;100.00;50573.16;5031874;28;20381;-65
2021/11/29 03:15:22;;;;;;;7.22;1.98;;;;;;;-149.78;100.00;50596.63;5033266;28;20052;-65
2021/11/29 03:17:48;;;;;;;2.35;1.25;;;;;;;-149.78;100.00;50616.19;5041237;28;20038;-65
2021/11/29 03:20:13;;;;;;;6.65;1.65;;;;;;;-149.78;100.00;50598.56;5029443;28;20417;-65
2021/11/29 03:22:39;;;;;;;2.65;1.45;;;;;;;-149.78;100.00;50590.75;5031031;28;20121;-65
2021/11/29 03:25:06;;;;;;;6.88;1.50;;;;;;;-149.78;100.00;50561.41;5032513;28;20033;-65
2021/11/29 03:27:32;;;;;;;4.60;1.20;;;;;;;-149.78;100.00;50604.44;5031810;28;20124;-65
2021/11/29 03:29:58;;;;;;;2.60;1.20;;;;;;;-149.78;100.00;50580.97;5031078;28;20124;-65
2021/11/29 03:32:23;;;;;;;3.78;1.30;;;;;;;-149.78;100.00;50625.94;5034430;28;20099;-65
2021/11/29 03:34:50;;;;;;;6.35;1.42;;;;;;;-149.78;100.00;50577.06;5033274;28;20042;-65
2021/11/29 03:37:17;;;;;;;5.38;1.08;;;;;;;-149.78;100.00;50588.78;5025428;28;20432;-65
2021/11/29 03:39:44;;;;;;;7.30;1.00;;;;;;;-149.78;100.00;50616.19;5033275;28;20072;-65
2021/11/29 03:42:10;;;;;;;2.75;1.00;;;;;;;-149.78;100.00;50616.19;5022011;28;20037;-65
2021/11/29 03:44:37;;;;;;;3.13;1.13;;;;;;;-149.78;100.00;50563.38;5030414;28;20103;-65
2021/11/29 03:47:05;;;;;;;3.65;0.98;;;;;;;-149.78;100.00;50596.63;5015548;28;20503;-65
2021/11/29 03:49:31;;;;;;;4.45;1.30;;;;;;;-149.78;100.00;50586.84;5023902;28;20030;-65
2021/11/29 03:51:57;;;;;;;4.55;1.10;;;;;;;-149.78;100.00;50584.88;5031543;28;20372;-65
2021/11/29 03:54:23;;;;;;;2.17;0.90;;;;;;;-149.78;100.00;50596.63;5028834;28;20477;-65
2021/11/29 03:56:49;;;;;;;2.70;1.15;;;;;;;-149.78;100.00;50612.25;5027886;28;20044;-65
2021/11/29 03:59:16;;;;;;;3.28;0.85;;;;;;;-149.78;100.00;50563.38;5038504;28;20037;-65
2021/11/29 04:01:43;;;;;;;5.35;0.82;;;;;;;-149.78;100.00;50627.91;5031261;28;20452;-65
2021/11/29 04:04:09;;;;;;;2.53;0.98;;;;;;;-149.78;100.00;50608.34;5034357;28;20060;-65
2021/11/29 04:06:36;;;;;;;1.00;0.70;;;;;;;-149.78;100.00;50604.44;5026346;28;20029;-65
2021/11/29 04:09:03;;;;;;;3.33;1.30;;;;;;;-149.78;100.00;50627.91;5026834;28;20539;-65
2021/11/29 04:11:29;;;;;;;2.33;1.08;;;;;;;-149.78;100.00;50580.97;5029829;28;20037;-65
2021/11/29 04:13:57;;;;;;;5.32;1.10;;;;;;;-149.78;100.00;50624.00;5023493;28;20457;-65
2021/11/29 04:16:28;;;;;;;4.35;1.25;;;;;;;-149.78;100.00;50600.53;5030259;28;20033;-64
2021/11/29 04:19:04;;;;;;;2.63;1.00;;;;;;;-149.78;100.00;50569.22;5023235;28;20041;-65
2021/11/29 04:21:29;;;;;;;2.22;1.10;;;;;;;-149.78;100.00;50596.63;5027138;28;20034;-65
2021/11/29 04:23:55;;;;;;;2.97;0.80;;;;;;;-149.78;100.00;50577.06;5033229;28;20125;-64
2021/11/29 04:26:21;;;;;;;3.33;1.20;;;;;;;-149.78;100.00;50616.19;5028263;28;20037;-65
2021/11/29 04:28:50;;;;;;;8.75;1.40;;;;;;;-149.78;100.00;50588.78;5032780;28;20025;-65
2021/11/29 04:31:16;;;;;;;2.50;1.08;;;;;;;-149.78;100.00;50608.34;5030948;28;20473;-64
2021/11/29 04:33:41;;;;;;;2.95;1.00;;;;;;;-149.78;100.00;50616.19;5034196;28;20061;-65
2021/11/29 04:36:07;;;;;;;5.22;1.40;;;;;;;-149.78;100.00;50584.88;5021301;28;20040;-64
2021/11/29 04:38:33;;;;;;;5.80;1.13;;;;;;;-149.78;100.00;50596.63;5032315;28;20366;-64
2021/11/29 04:41:00;;;;;;;6.88;1.08;;;;;;;-149.78;100.00;50612.25;5030478;28;20112;-64
2021/11/29 04:43:25;;;;;;;3.55;1.20;;;;;;;-149.78;100.00;50620.09;5031455;28;20491;-64
2021/11/29 04:45:51;;;;;;;2.95;0.82;;;;;;;-149.78;100.00;50555.53;5031480;28;20071;-64
2021/11/29 04:48:17;;;;;;;2.03;1.20;;;;;;;-149.78;100.00;50604.44;5029948;28;20124;-64
2021/11/29 04:50:43;;;;;;;4.53;1.20;;;;;;;-149.78;100.00;50592.72;5026465;28;20034;-64
2021/11/29 04:53:09;;;;;;;2.97;0.90;;;;;;;-149.78;100.00;50604.44;5027858;28;20032;-64
2021/11/29 04:55:34;;;;;;;2.78;0.98;;;;;;;-149.78;100.00;50557.50;5037316;28;20036;-64
2021/11/29 04:58:00;;;;;;;2.72;0.80;;;;;;;-149.78;100.00;50608.34;5025094;28;20837;-64
2021/11/29 05:00:26;;;;;;;3.20;1.38;;;;;;;-149.78;100.00;50600.53;5029094;28;20072;-64
2021/11/29 05:02:52;;;;;;;3.13;1.13;;;;;;;-149.78;100.00;50573.16;5030546;28;20100;-63
2021/11/29 05:05:18;;;;;;;3.35;1.25;;;;;;;-149.78;100.00;50592.72;5032560;28;20069;-64
2021/11/29 05:07:43;;;;;;;7.57;1.10;;;;;;;-149.78;100.00;50612.25;5035630;28;20540;-64
2021/11/29 05:10:10;;;;;;;4.88;1.10;;;;;;;-149.78;100.00;50584.88;5025852;28;20042;-64
2021/11/29 05:12:36;;;;;;;7.80;1.08;;;;;;;-149.78;100.00;50594.66;5030356;28;20452;-64
2021/11/29 05:15:03;;;;;;;1.75;1.10;;;;;;;-149.78;100.00;50608.34;5032879;28;20045;-64
2021/11/29 05:17:29;;;;;;;4.32;1.17;;;;;;;-149.78;100.00;50631.81;5036060;28;20033;-64
2021/11/29 05:19:55;;;;;;;3.20;0.85;;;;;;;-149.78;100.00;50580.97;5031413;28;20396;-64
2021/11/29 05:22:21;;;;;;;2.85;1.10;;;;;;;-149.78;100.00;50600.53;5032681;28;20421;-64
2021/11/29 05:24:47;;;;;;;8.73;0.90;;;;;;;-149.78;100.00;50616.19;5029658;28;20501;-64
2021/11/29 05:27:13;;;;;;;4.15;1.13;;;;;;;-149.78;100.00;50604.44;5028030;28;20124;-64
2021/11/29 05:29:39;;;;;;;2.25;1.05;;;;;;;-149.78;100.00;50600.53;5031812;28;20083;-64
2021/11/29 05:32:06;;;;;;;2.92;1.05;;;;;;;-149.78;100.00;50579.00;5031528;28;20394;-64
2021/11/29 05:34:31;;;;;;;1.80;0.95;;;;;;;-149.78;100.00;50612.25;5021117;28;20037;-64
2021/11/29 05:36:57;;;;;;;4.90;1.25;;;;;;;-149.78;100.00;50604.44;5030066;28;20491;-64
2021/11/29 05:39:23;;;;;;;5.50;1.20;;;;;;;-149.78;100.00;50588.78;5015181;28;20030;-64
2021/11/29 05:41:49;;;;;;;3.88;0.80;;;;;;;-149.78;100.00;50627.91;5023797;28;20033;-64
2021/11/29 05:44:15;;;;;;;4.18;0.85;;;;;;;-149.78;100.00;50604.44;5038812;28;20033;-64
2021/11/29 05:46:42;;;;;;;3.95;1.10;;;;;;;-149.78;100.00;50620.09;5032521;28;20037;-64
2021/11/29 05:49:07;;;;;;;3.05;0.93;;;;;;;-149.78;100.00;50604.44;5028134;28;21407;-64
2021/11/29 05:51:33;;;;;;;4.60;1.00;;;;;;;-149.78;100.00;50592.72;5027018;28;20475;-64
2021/11/29 05:53:59;;;;;;;3.22;1.13;;;;;;;-149.78;100.00;50604.44;5030469;28;20109;-64
2021/11/29 05:56:25;;;;;;;1.75;0.90;;;;;;;-149.78;100.00;50604.44;5027693;28;20461;-64
2021/11/29 05:58:51;;;;;;;2.08;1.02;;;;;;;-149.78;100.00;50631.81;5023087;28;20147;-64
2021/11/29 06:01:17;;;;;;;1.55;0.90;;;;;;;-149.78;100.00;50629.88;5033686;28;20068;-64
2021/11/29 06:03:44;;;;;;;3.10;0.90;;;;;;;-149.78;100.00;50620.09;5029459;28;20037;-64
2021/11/29 06:06:11;;;;;;;2.42;1.20;;;;;;;-149.78;100.00;50592.72;5031735;28;20728;-64
2021/11/29 06:08:37;;;;;;;6.18;1.45;;;;;;;-149.78;100.00;50600.53;5027728;28;20052;-64
2021/11/29 06:11:02;;;;;;;2.22;0.98;;;;;;;-149.78;100.00;50604.44;5033761;28;20046;-64
2021/11/29 06:13:28;;;;;;;1.40;0.75;;;;;;;-149.78;100.00;50592.72;5027512;28;20033;-64
2021/11/29 06:15:53;;;;;;;1.77;0.80;;;;;;;-149.78;100.00;50596.63;5030119;28;20034;-64
2021/11/29 06:18:19;;;;;;;4.97;1.02;;;;;;;-149.78;100.00;50616.19;5030634;28;20112;-64
2021/11/29 06:20:45;;;;;;;4.45;1.00;;;;;;;-149.78;100.00;50573.16;5026867;28;20034;-64
2021/11/29 06:23:11;;;;;;;6.38;1.10;;;;;;;-149.78;100.00;50651.38;5035667;28;20248;-64
2021/11/29 06:25:38;;;;;;;4.50;1.25;;;;;;;-149.78;100.00;50569.22;5025424;28;20042;-64
2021/11/29 06:28:07;;;;;;;2.67;1.40;;;;;;;-149.78;100.00;50627.91;5034270;28;20545;-64
2021/11/29 06:30:33;;;;;;;5.65;1.35;;;;;;;-149.78;100.00;50592.72;5034972;28;20056;-64
2021/11/29 06:32:59;;;;;;;2.53;1.45;;;;;;;-149.78;100.00;50624.00;5033621;28;20155;-64
2021/11/29 06:35:25;;;;;;;7.80;1.48;;;;;;;-149.78;100.00;50580.97;5017595;28;20133;-64
2021/11/29 06:37:57;;;;;;;6.47;1.20;;;;;;;-149.78;100.00;50584.88;5027903;28;20389;-64
2021/11/29 06:40:23;;;;;;;7.80;1.25;;;;;;;-149.78;100.00;50600.53;5019151;28;20032;-64
2021/11/29 06:42:49;;;;;;;3.17;2.38;;;;;;;-149.78;100.00;50620.09;5032054;28;20041;-65
2021/11/29 06:45:15;;;;;;;5.65;1.40;;;;;;;-149.78;100.00;50624.00;5023487;28;20029;-64
2021/11/29 06:47:42;;;;;;;3.92;1.52;;;;;;;-149.78;100.00;50592.72;5023501;28;20618;-65
2021/11/29 06:50:10;;;;;;;4.50;1.30;;;;;;;-149.78;100.00;50627.91;5019974;28;20037;-65
2021/11/29 06:52:36;;;;;;;4.88;1.60;;;;;;;-149.78;100.00;50584.88;5029529;28;20041;-65
2021/11/29 06:55:04;;;;;;;10.75;1.52;;;;;;;-149.78;100.00;50624.00;5028433;28;20037;-65
2021/11/29 06:57:30;;;;;;;2.00;1.17;;;;;;;-149.78;100.00;50596.63;5026741;28;20029;-65
2021/11/29 06:59:56;;;;;;;3.03;1.10;;;;;;;-149.78;100.00;50575.09;5021247;28;20037;-65
2021/11/29 07:02:27;;;;;;;3.20;1.88;;;;;;;-149.78;100.00;50604.44;5026534;28;20091;-65
2021/11/29 07:04:56;;;;;;;6.35;1.50;;;;;;;-149.78;100.00;50622.03;5020193;28;20029;-65
2021/11/29 07:07:21;;;;;;;3.25;1.35;;;;;;;-149.78;100.00;50616.19;5024092;28;20380;-65
2021/11/29 07:09:47;;;;;;;2.65;1.35;;;;;;;-149.78;100.00;50627.91;5032033;28;20037;-65
2021/11/29 07:12:16;;;;;;;4.35;1.40;;;;;;;-149.78;100.00;50557.50;5033776;28;20040;-65
2021/11/29 07:14:42;;;;;;;1.38;1.13;;;;;;;-149.78;100.00;50596.63;5024727;28;20554;-66
2021/11/29 07:17:08;;;;;;;6.72;1.40;;;;;;;-149.78;100.00;50596.63;5018039;28;20029;-66
2021/11/29 07:19:33;;;;;;;3.95;1.40;;;;;;;-149.78;100.00;50604.44;5019183;28;20064;-65
2021/11/29 07:21:59;;;;;;;2.78;1.15;;;;;;;-149.78;100.00;50608.34;5016991;28;20095;-65
2021/11/29 07:24:24;;;;;;;7.70;1.30;;;;;;;-149.78;100.00;50651.38;5023539;28;20095;-65
2021/11/29 07:26:50;;;;;;;6.22;1.33;;;;;;;-149.78;100.00;50594.66;5026084;28;20029;-65
2021/11/29 07:29:16;;;;;;;4.07;1.38;;;;;;;-149.78;100.00;50635.72;5024058;28;20153;-65
2021/11/29 07:31:43;;;;;;;4.03;1.10;;;;;;;-149.78;100.00;50645.50;5021779;28;20025;-65
2021/11/29 07:34:09;;;;;;;4.72;1.27;;;;;;;-149.78;100.00;50600.53;5019034;28;20042;-66
2021/11/29 07:36:36;;;;;;;2.40;1.20;;;;;;;-149.78;100.00;50604.44;5015082;28;20075;-67
2021/11/29 07:39:03;;;;;;;4.88;1.13;;;;;;;-149.78;100.00;50577.06;5017352;28;20088;-64
2021/11/29 07:41:28;;;;;;;5.90;1.00;;;;;;;-149.78;100.00;50620.09;5015892;28;20038;-64
2021/11/29 07:43:54;;;;;;;4.65;1.40;;;;;;;-149.78;100.00;50588.78;5017817;28;20048;-64
2021/11/29 07:46:19;;;;;;;2.55;1.08;;;;;;;-149.78;100.00;50616.19;5019206;28;20555;-64
2021/11/29 07:48:45;;;;;;;4.35;0.90;;;;;;;-149.78;100.00;50600.53;5016584;28;20036;-65
2021/11/29 07:51:10;;;;;;;2.88;1.10;;;;;;;-149.78;100.00;50573.16;5017288;28;20044;-64
2021/11/29 07:53:36;;;;;;;3.75;1.13;;;;;;;-149.78;100.00;50612.25;5019404;28;20037;-65
2021/11/29 07:56:02;;;;;;;4.25;1.20;;;;;;;-149.78;100.00;50624.00;5018394;28;20038;-65
2021/11/29 07:58:28;;;;;;;0.88;0.75;;;;;;;-149.78;100.00;50625.94;5023262;28;20688;-64
2021/11/29 08:00:54;;;;;;;1.58;0.85;;;;;;;-149.78;100.00;50622.03;5023988;28;20061;-64
2021/11/29 08:03:20;;;;;;;1.75;0.98;;;;;;;-149.78;100.00;50592.72;5026218;28;20038;-64
2021/11/29 08:05:46;;;;;;;5.63;1.00;;;;;;;-149.78;100.00;50563.38;5020671;28;21089;-64
2021/11/29 08:08:11;;;;;;;3.92;0.98;;;;;;;-149.78;100.00;50575.09;5019497;28;20046;-64
2021/11/29 08:10:39;;;;;;;6.85;1.73;;;;;;;-149.78;100.00;50608.34;5018906;28;20371;-64
2021/11/29 08:13:10;;;;;;;6.60;1.20;;;;;;;-149.78;100.00;50604.44;5018688;28;20033;-62
2021/11/29 08:15:39;;;;;;;4.38;1.45;;;;;;;-149.78;100.00;50569.22;5025757;28;20525;-62
2021/11/29 08:18:09;;;;;;;3.63;1.10;;;;;;;-149.78;100.00;50577.06;5025950;28;20052;-61
2021/11/29 08:20:36;;;;;;;6.68;1.48;;;;;;;-149.78;100.00;50592.72;5031330;28;20041;-63
2021/11/29 08:23:02;;;;;;;5.15;1.23;;;;;;;-149.78;100.00;50612.25;5019604;28;20030;-63
2021/11/29 08:25:27;;;;;;;7.47;1.65;;;;;;;-149.78;100.00;50616.19;5025101;28;20540;-63
2021/11/29 08:27:54;;;;;;;5.80;1.10;;;;;;;-149.78;100.00;50612.25;5024127;28;20436;-63
2021/11/29 08:30:23;;;;;;;2.08;1.38;;;;;;;-149.78;100.00;50588.78;5029187;28;20120;-63
2021/11/29 08:32:49;;;;;;;5.38;1.60;;;;;;;-149.78;100.00;50584.88;5027619;28;20037;-63
2021/11/29 08:35:16;;;;;;;3.78;1.23;;;;;;;-149.78;100.00;50565.31;5026271;28;20033;-63
2021/11/29 08:37:46;;;;;;;2.55;1.20;;;;;;;-149.78;100.00;50620.09;5030645;28;20033;-64
2021/11/29 08:40:14;;;;;;;4.60;1.10;;;;;;;-149.78;100.00;50569.22;5017877;28;20029;-63
2021/11/29 08:42:39;;;;;;;3.75;1.02;;;;;;;-149.78;100.00;50627.91;5019278;28;20033;-63
2021/11/29 08:45:05;;;;;;;4.78;1.40;;;;;;;-149.78;100.00;50602.47;5029496;28;20040;-63
2021/11/29 08:47:31;;;;;;;5.28;1.30;;;;;;;-149.78;100.00;50618.13;5026766;28;20041;-63
2021/11/29 08:49:56;;;;;;;13.38;3.53;;;;;;;-149.78;100.00;50580.97;5026863;28;20044;-63
2021/11/29 08:52:25;;;;;;;4.68;1.67;;;;;;;-149.78;100.00;50584.88;5029869;28;20115;-63
2021/11/29 08:54:50;;;;;;;7.18;1.40;;;;;;;-149.78;100.00;50588.78;5028686;28;20094;-63
2021/11/29 08:57:16;;;;;;;4.30;1.42;;;;;;;-149.78;100.00;50594.66;5022037;28;20037;-63
2021/11/29 08:59:42;;;;;;;2.72;1.50;;;;;;;-149.78;100.00;50586.84;5025047;28;20106;-63
2021/11/29 09:02:08;;;;;;;2.60;1.30;;;;;;;-149.78;100.00;50608.34;5030172;28;20483;-64
2021/11/29 09:04:33;;;;;;;3.47;1.20;;;;;;;-149.78;100.00;50631.81;5029613;28;20037;-64
2021/11/29 09:07:00;;;;;;;4.88;1.13;;;;;;;-149.78;100.00;50561.41;5029535;28;20396;-64
2021/11/29 09:09:31;;;;;;;7.28;1.70;;;;;;;-149.78;100.00;50584.88;5031360;28;20030;-64
2021/11/29 09:11:56;;;;;;;2.45;1.40;;;;;;;-149.78;100.00;50577.06;5030494;28;20045;-63
2021/11/29 09:14:22;;;;;;;4.68;1.27;;;;;;;-149.78;100.00;50575.09;5019177;28;20052;-63
2021/11/29 09:16:48;;;;;;;4.88;1.58;;;;;;;-149.78;100.00;50571.19;5016829;28;20117;-63
2021/11/29 09:19:14;;;;;;;9.07;1.40;;;;;;;-149.78;100.00;50573.16;5016806;28;20089;-63
2021/11/29 09:21:40;;;;;;;3.20;1.13;;;;;;;-149.78;100.00;50614.22;5016913;28;20061;-63
2021/11/29 09:24:06;;;;;;;2.58;1.20;;;;;;;-149.78;100.00;50580.97;5027585;28;20044;-63
2021/11/29 09:26:31;;;;;;;2.92;1.65;;;;;;;-149.78;100.00;50624.00;5016142;28;20058;-63
2021/11/29 09:28:57;;;;;;;3.65;1.27;;;;;;;-149.78;100.00;50580.97;5028580;28;20041;-63
2021/11/29 09:31:24;;;;;;;4.13;1.67;;;;;;;-149.78;100.00;50596.63;5031821;28;20048;-63
2021/11/29 09:33:50;;;;;;;6.97;1.83;;;;;;;-149.78;100.00;50559.47;5029185;28;20052;-63
2021/11/29 09:36:16;;;;;;;5.03;1.50;;;;;;;-149.78;100.00;50565.31;5040010;28;20380;-63
2021/11/29 09:38:42;;;;;;;7.80;1.90;;;;;;;-149.78;100.00;50549.69;5032032;28;20044;-63
2021/11/29 09:41:08;;;;;;;4.80;2.00;;;;;;;-149.78;100.00;50549.69;5025053;28;20045;-63
2021/11/29 09:43:34;;;;;;;4.35;2.15;;;;;;;-149.78;100.00;50629.88;5029683;28;20120;-63
2021/11/29 09:46:01;;;;;;;8.55;2.20;;;;;;;-149.78;100.00;50596.63;5021157;28;20112;-63
2021/11/29 09:48:26;;;;;;;7.75;2.10;;;;;;;-149.78;100.00;50541.84;5018534;28;20107;-63
2021/11/29 09:50:54;;;;;;;4.20;1.98;;;;;;;-149.78;100.00;50545.75;5020212;28;20410;-63
2021/11/29 09:53:23;;;;;;;5.18;2.50;;;;;;;-149.78;100.00;50551.63;5019253;28;20056;-63
2021/11/29 09:55:49;;;;;;;4.13;2.30;;;;;;;-149.78;100.00;50553.59;5027228;28;20493;-63
2021/11/29 09:58:15;;;;;;;7.75;2.13;;;;;;;-149.78;100.00;50541.84;5027013;28;20084;-63
2021/11/29 10:00:46;;;;;;;7.82;2.45;;;;;;;-149.78;100.00;50545.75;5031345;28;20432;-63
2021/11/29 10:03:12;;;;;;;6.45;1.73;;;;;;;-149.78;100.00;50596.63;5027463;28;20073;-63
2021/11/29 10:05:38;;;;;;;6.60;2.47;;;;;;;-149.78;100.00;50580.97;5034768;28;20485;-63
2021/11/29 10:08:20;;;;;;;4.53;2.20;;;;;;;-149.78;100.00;50584.88;5032091;28;20041;-63
2021/11/29 10:10:59;;;;;;;7.75;2.05;;;;;;;-149.78;100.00;50573.16;5030681;28;20037;-63
2021/11/29 10:13:27;;;;;;;5.95;2.20;;;;;;;-149.78;100.00;50565.31;5031511;28;20035;-64
2021/11/29 10:15:53;;;;;;;3.55;2.00;;;;;;;-149.78;100.00;50561.41;5026406;28;20093;-64
2021/11/29 10:18:24;;;;;;;7.05;3.20;;;;;;;-149.78;100.00;50541.84;5032350;28;20118;-64
2021/11/29 10:21:08;;;;;;;8.30;3.08;;;;;;;-149.78;100.00;50561.41;5042217;28;20171;-64
2021/11/29 10:23:49;;;;;;;9.82;2.53;;;;;;;-149.78;100.00;50561.41;5025416;28;20025;-63
2021/11/29 10:26:18;;;;;;;5.95;1.70;;;;;;;-149.78;100.00;50549.69;5024128;28;20033;-64
2021/11/29 10:28:55;;;;;;;5.22;1.80;;;;;;;-149.78;100.00;50563.38;5033386;28;20396;-64
2021/11/29 10:31:48;;;;;;;3.40;1.80;;;;;;;-149.78;100.00;50571.19;5035603;28;20033;-64
2021/11/29 10:34:19;;;;;;;9.32;2.28;;;;;;;-149.78;100.00;50557.50;5032068;28;20048;-64
2021/11/29 10:37:01;;;;;;;4.28;1.90;;;;;;;-149.78;100.00;50561.41;5032864;28;20369;-64
2021/11/29 10:39:40;;;;;;;5.72;2.85;;;;;;;-149.78;100.00;50541.84;5029823;28;20037;-64
2021/11/29 10:42:09;;;;;;;5.90;2.25;;;;;;;-149.78;100.00;50491.00;5030061;28;20480;-64
2021/11/29 10:44:40;;;;;;;7.10;2.40;;;;;;;-149.78;100.00;50551.63;5025635;28;20112;-64
2021/11/29 10:47:12;;;;;;;5.57;2.00;;;;;;;-149.78;100.00;50543.81;5024735;28;20484;-64
2021/11/29 10:49:43;;;;;;;3.83;1.67;;;;;;;-149.78;100.00;50512.50;5026966;28;20084;-64
2021/11/29 10:52:10;;;;;;;6.53;1.77;;;;;;;-149.78;100.00;50557.50;5028308;28;20271;-63
2021/11/29 10:54:39;;;;;;;5.75;1.88;;;;;;;-149.78;100.00;50563.38;5032118;28;20025;-64
2021/11/29 10:57:05;;;;;;;9.02;3.65;;;;;;;-149.78;100.00;50537.94;5033509;28;20128;-64
2021/11/29 10:59:35;;;;;;;4.85;1.90;;;;;;;-149.78;100.00;50518.38;5031048;28;20030;-64
2021/11/29 11:02:07;;;;;;;6.32;1.60;;;;;;;-149.78;100.00;50573.16;5024753;28;20060;-64
2021/11/29 11:04:36;;;;;;;4.75;1.55;;;;;;;-149.78;100.00;50545.75;5029518;28;20091;-64
2021/11/29 11:07:04;;;;;;;4.20;1.50;;;;;;;-149.78;100.00;50514.47;5028534;28;20060;-64
2021/11/29 11:09:31;;;;;;;4.75;1.50;;;;;;;-149.78;100.00;50524.25;5027339;28;20087;-64